createdAt,value
2023-03-26T00:01:52.809Z,64.21
2023-03-26T00:04:33.447Z,64.48
2023-03-26T00:07:10.934Z,65.37
2023-03-26T00:09:47.256Z,66.50
2023-03-26T00:12:20.271Z,65.49
2023-03-26T00:14:52.830Z,63.65
2023-03-26T00:17:26.657Z,63.12
2023-03-26T00:20:43.185Z,63.47
2023-03-26T00:24:15.134Z,64.17
2023-03-26T00:26:53.503Z,64.91
2023-03-26T00:29:28.143Z,66.00
2023-03-26T00:32:01.838Z,65.32
2023-03-26T00:34:34.573Z,63.79
2023-03-26T00:37:04.941Z,63.20
2023-03-26T00:39:36.494Z,63.44
2023-03-26T00:42:06.988Z,64.04
2023-03-26T00:44:34.844Z,64.49
2023-03-26T00:47:03.734Z,65.46
2023-03-26T00:49:32.104Z,64.73
2023-03-26T00:52:03.570Z,63.08
2023-03-26T00:54:37.067Z,62.61
2023-03-26T00:57:06.763Z,62.72
2023-03-26T00:59:36.492Z,63.25
2023-03-26T01:02:04.764Z,63.84
2023-03-26T01:04:35.315Z,64.80
2023-03-26T01:07:22.670Z,64.40
2023-03-26T01:10:09.433Z,62.51
2023-03-26T01:12:37.252Z,62.42
2023-03-26T01:15:05.372Z,62.58
2023-03-26T01:17:38.042Z,62.56
2023-03-26T01:20:26.562Z,63.39
2023-03-26T01:22:56.400Z,64.45
2023-03-26T01:25:23.777Z,63.74
2023-03-26T01:27:52.544Z,62.60
2023-03-26T01:30:37.184Z,62.35
2023-03-26T01:33:33.953Z,62.50
2023-03-26T01:36:17.050Z,63.64
2023-03-26T01:38:48.376Z,64.18
2023-03-26T01:41:32.984Z,64.93
2023-03-26T01:44:07.116Z,64.81
2023-03-26T01:46:36.457Z,63.14
2023-03-26T01:49:05.016Z,63.03
2023-03-26T01:51:34.803Z,63.27
2023-03-26T01:54:04.285Z,63.83
2023-03-26T01:56:53.469Z,64.42
2023-03-26T01:59:45.543Z,65.10
2023-03-26T02:02:26.771Z,64.23
2023-03-26T02:05:16.185Z,62.72
2023-03-26T02:08:07.906Z,62.47
2023-03-26T02:10:45.424Z,63.04
2023-03-26T02:13:13.119Z,63.39
2023-03-26T02:15:41.465Z,64.18
2023-03-26T02:18:13.430Z,64.65
2023-03-26T02:20:41.877Z,64.15
2023-03-26T02:23:09.962Z,62.48
2023-03-26T02:25:43.871Z,62.25
2023-03-26T02:28:22.265Z,62.17
2023-03-26T02:31:01.918Z,62.75
2023-03-26T02:33:39.786Z,63.48
2023-03-26T02:36:14.103Z,63.70
2023-03-26T02:39:05.167Z,65.18
2023-03-26T02:41:42.244Z,64.19
2023-03-26T02:44:15.078Z,62.62
2023-03-26T02:47:46.423Z,62.07
2023-03-26T02:50:36.896Z,62.49
2023-03-26T02:53:54.000Z,63.32
2023-03-26T02:56:46.740Z,63.61
2023-03-26T02:59:40.106Z,64.37
2023-03-26T03:02:29.513Z,63.74
2023-03-26T03:05:12.315Z,62.22
2023-03-26T03:07:48.457Z,62.04
2023-03-26T03:11:05.572Z,62.13
2023-03-26T03:13:42.656Z,62.58
2023-03-26T03:16:23.040Z,62.92
2023-03-26T03:18:59.993Z,63.76
2023-03-26T03:21:38.710Z,63.22
2023-03-26T03:24:43.832Z,62.07
2023-03-26T03:27:26.870Z,61.48
2023-03-26T03:30:03.000Z,61.58
2023-03-26T03:32:53.867Z,61.97
2023-03-26T03:35:54.038Z,62.75
2023-03-26T03:38:34.350Z,62.96
2023-03-26T03:41:23.766Z,63.37
2023-03-26T03:43:59.439Z,63.65
2023-03-26T03:46:35.856Z,62.01
2023-03-26T03:49:12.716Z,61.93
2023-03-26T03:51:41.253Z,61.65
2023-03-26T03:54:30.520Z,62.59
2023-03-26T03:57:19.351Z,63.17
2023-03-26T04:00:00.605Z,62.92
2023-03-26T04:02:38.456Z,62.24
2023-03-26T04:05:07.516Z,61.64
2023-03-26T04:07:39.639Z,61.63
2023-03-26T04:10:08.244Z,61.84
2023-03-26T04:12:55.458Z,62.30
2023-03-26T04:15:36.927Z,62.70
2023-03-26T04:18:04.619Z,63.24
2023-03-26T04:20:33.924Z,63.82
2023-03-26T04:23:01.690Z,64.19
2023-03-26T04:25:33.266Z,62.33
2023-03-26T04:28:36.514Z,62.41
2023-03-26T04:31:39.842Z,63.33
2023-03-26T04:34:13.713Z,62.96
2023-03-26T04:36:54.711Z,62.29
2023-03-26T04:39:29.413Z,61.81
2023-03-26T04:42:28.672Z,62.50
2023-03-26T04:45:15.764Z,63.42
2023-03-26T04:47:49.134Z,61.69
2023-03-26T04:50:30.826Z,61.59
2023-03-26T04:53:19.381Z,61.18
2023-03-26T04:56:37.574Z,63.07
2023-03-26T04:59:35.317Z,63.87
2023-03-26T05:02:14.866Z,65.02
2023-03-26T05:04:51.783Z,64.44
2023-03-26T05:07:24.301Z,62.73
2023-03-26T05:09:59.197Z,62.86
2023-03-26T05:13:21.711Z,62.78
2023-03-26T05:15:53.632Z,62.84
2023-03-26T05:18:46.781Z,63.33
2023-03-26T05:21:14.716Z,63.10
2023-03-26T05:24:05.711Z,62.13
2023-03-26T05:26:34.220Z,60.62
2023-03-26T05:29:03.116Z,60.18
2023-03-26T05:31:44.587Z,60.40
2023-03-26T05:34:14.641Z,60.29
2023-03-26T05:36:44.329Z,60.76
2023-03-26T05:39:31.978Z,61.51
2023-03-26T05:42:09.464Z,62.03
2023-03-26T05:45:02.711Z,61.04
2023-03-26T05:47:31.108Z,59.43
2023-03-26T05:50:08.025Z,59.13
2023-03-26T05:52:37.060Z,58.69
2023-03-26T05:55:34.993Z,59.25
2023-03-26T05:58:43.712Z,59.39
2023-03-26T06:01:31.008Z,59.81
2023-03-26T06:04:36.850Z,59.65
2023-03-26T06:07:43.132Z,59.91
2023-03-26T06:10:21.162Z,57.85
2023-03-26T06:12:49.808Z,55.39
2023-03-26T06:15:25.049Z,55.08
2023-03-26T06:18:07.701Z,55.01
2023-03-26T06:20:58.086Z,55.04
2023-03-26T06:23:51.853Z,56.25
2023-03-26T06:26:43.211Z,56.27
2023-03-26T06:29:24.529Z,56.85
2023-03-26T06:32:12.309Z,56.56
2023-03-26T06:35:30.542Z,57.15
2023-03-26T06:37:58.924Z,56.65
2023-03-26T06:40:31.202Z,56.69
2023-03-26T06:43:20.604Z,54.37
2023-03-26T06:45:55.873Z,51.62
2023-03-26T06:49:04.073Z,49.06
2023-03-26T06:51:50.660Z,49.72
2023-03-26T06:54:44.797Z,48.90
2023-03-26T06:57:34.591Z,47.99
2023-03-26T07:00:24.207Z,48.07
2023-03-26T07:03:11.651Z,46.00
2023-03-26T07:06:13.422Z,45.87
2023-03-26T07:09:10.075Z,43.44
2023-03-26T07:12:20.481Z,43.05
2023-03-26T07:15:04.182Z,41.34
2023-03-26T07:18:02.603Z,41.42
2023-03-26T07:20:33.418Z,41.47
2023-03-26T07:23:01.127Z,41.22
2023-03-26T07:25:48.466Z,40.63
2023-03-26T07:28:34.148Z,41.24
2023-03-26T07:31:16.239Z,40.35
2023-03-26T07:33:55.762Z,41.11
2023-03-26T07:37:04.580Z,40.43
2023-03-26T07:40:23.089Z,41.67
2023-03-26T07:43:26.954Z,42.66
2023-03-26T07:46:34.996Z,42.75
2023-03-26T07:49:59.079Z,41.34
2023-03-26T07:52:59.044Z,40.77
2023-03-26T07:56:00.838Z,40.20
2023-03-26T07:59:11.845Z,40.23
2023-03-26T08:02:17.076Z,40.60
2023-03-26T08:05:40.356Z,40.05
2023-03-26T08:08:36.756Z,39.89
2023-03-26T08:11:39.795Z,40.11
2023-03-26T08:14:38.260Z,40.68
2023-03-26T08:17:38.229Z,40.76
2023-03-26T08:20:35.865Z,41.96
2023-03-26T08:23:24.991Z,42.85
2023-03-26T08:25:59.514Z,42.93
2023-03-26T08:29:26.771Z,43.31
2023-03-26T08:32:09.867Z,43.72
2023-03-26T08:34:37.536Z,44.69
2023-03-26T08:37:18.034Z,45.87
2023-03-26T08:39:48.290Z,46.27
2023-03-26T08:42:41.086Z,47.67
2023-03-26T08:45:30.354Z,45.57
2023-03-26T08:48:11.361Z,45.47
2023-03-26T08:50:58.242Z,44.03
2023-03-26T08:53:40.926Z,43.36
2023-03-26T08:56:36.046Z,42.91
2023-03-26T08:59:39.060Z,42.72
2023-03-26T09:02:31.423Z,43.83
2023-03-26T09:05:11.755Z,44.39
2023-03-26T09:08:32.875Z,44.89
2023-03-26T09:11:26.193Z,46.33
2023-03-26T09:14:29.485Z,49.46
2023-03-26T09:17:45.129Z,49.81
2023-03-26T09:20:58.907Z,50.52
2023-03-26T09:24:00.216Z,52.38
2023-03-26T09:27:04.452Z,54.60
2023-03-26T09:29:53.642Z,54.89
2023-03-26T09:32:33.390Z,54.19
2023-03-26T09:35:47.223Z,53.63
2023-03-26T09:38:33.283Z,52.37
2023-03-26T09:41:17.915Z,53.12
2023-03-26T09:43:48.901Z,50.49
2023-03-26T09:46:32.252Z,47.82
2023-03-26T09:49:26.811Z,44.95
2023-03-26T09:52:32.145Z,44.81
2023-03-26T09:55:15.548Z,44.73
2023-03-26T09:57:53.900Z,44.85
2023-03-26T10:00:44.247Z,44.90
2023-03-26T10:03:44.975Z,43.68
2023-03-26T10:06:34.004Z,42.07
2023-03-26T10:09:03.394Z,40.96
2023-03-26T10:11:56.838Z,40.74
2023-03-26T10:14:45.157Z,38.12
2023-03-26T10:17:33.858Z,38.01
2023-03-26T10:20:41.690Z,37.31
2023-03-26T10:23:50.970Z,38.13
2023-03-26T10:26:24.719Z,38.18
2023-03-26T10:29:34.086Z,38.10
2023-03-26T10:32:17.283Z,39.04
2023-03-26T10:34:47.566Z,39.82
2023-03-26T10:37:50.190Z,40.51
2023-03-26T10:40:31.875Z,41.07
2023-03-26T10:43:40.585Z,41.73
2023-03-26T10:46:20.353Z,41.05
2023-03-26T10:49:12.796Z,40.55
2023-03-26T10:51:51.574Z,40.53
2023-03-26T10:54:58.488Z,39.29
2023-03-26T10:57:28.368Z,39.35
2023-03-26T10:59:57.569Z,39.35
2023-03-26T11:05:27.901Z,39.54
2023-03-26T11:08:13.045Z,39.49
2023-03-26T11:10:57.469Z,39.71
2023-03-26T11:13:43.291Z,38.42
2023-03-26T11:16:22.007Z,37.54
2023-03-26T11:19:11.039Z,35.41
2023-03-26T11:21:59.464Z,35.74
2023-03-26T11:24:33.564Z,35.64
2023-03-26T11:27:15.532Z,36.43
2023-03-26T11:30:11.858Z,35.04
2023-03-26T11:32:45.401Z,33.79
2023-03-26T11:35:40.540Z,32.54
2023-03-26T11:38:29.865Z,33.82
2023-03-26T11:40:57.421Z,32.84
2023-03-26T11:43:43.532Z,32.27
2023-03-26T11:46:13.014Z,32.58
2023-03-26T11:48:45.008Z,32.29
2023-03-26T11:51:19.243Z,32.41
2023-03-26T11:53:47.388Z,31.60
2023-03-26T11:56:23.435Z,31.59
2023-03-26T11:59:05.583Z,30.90
2023-03-26T12:01:52.825Z,32.12
2023-03-26T12:04:35.218Z,32.64
2023-03-26T12:07:09.762Z,33.18
2023-03-26T12:09:37.273Z,33.42
2023-03-26T12:12:13.254Z,32.71
2023-03-26T12:14:42.515Z,33.02
2023-03-26T12:17:31.985Z,32.81
2023-03-26T12:19:59.377Z,32.21
2023-03-26T12:22:36.422Z,31.63
2023-03-26T12:25:26.005Z,31.93
2023-03-26T12:28:04.074Z,30.58
2023-03-26T12:31:04.003Z,31.77
2023-03-26T12:33:38.812Z,32.73
2023-03-26T12:36:26.469Z,31.72
2023-03-26T12:39:17.091Z,32.18
2023-03-26T12:44:42.132Z,31.54
2023-03-26T12:44:52.814Z,31.48
2023-03-26T12:47:59.994Z,32.02
2023-03-26T12:50:12.608Z,32.60
2023-03-26T12:52:53.121Z,31.45
2023-03-26T12:55:39.869Z,31.70
2023-03-26T12:58:22.488Z,32.61
2023-03-26T13:00:56.105Z,33.79
2023-03-26T13:03:37.997Z,35.51
2023-03-26T13:06:58.939Z,37.03
2023-03-26T13:09:37.958Z,38.11
2023-03-26T13:12:12.238Z,39.96
2023-03-26T13:14:54.770Z,43.03
2023-03-26T13:17:52.842Z,42.92
2023-03-26T13:20:51.506Z,42.05
2023-03-26T13:23:26.768Z,44.23
2023-03-26T13:26:07.017Z,45.49
2023-03-26T13:29:01.072Z,44.54
2023-03-26T13:31:35.138Z,44.96
2023-03-26T13:34:16.175Z,41.88
2023-03-26T13:36:59.916Z,40.20
2023-03-26T13:39:38.875Z,40.80
2023-03-26T13:42:18.764Z,41.41
2023-03-26T13:44:48.616Z,42.97
2023-03-26T13:47:20.678Z,44.20
2023-03-26T13:49:53.032Z,44.61
2023-03-26T13:52:35.415Z,47.39
2023-03-26T13:55:31.187Z,47.16
2023-03-26T13:58:05.340Z,47.59
2023-03-26T14:00:47.789Z,47.66
2023-03-26T14:03:26.866Z,46.83
2023-03-26T14:05:55.651Z,44.39
2023-03-26T14:08:33.430Z,43.64
2023-03-26T14:11:28.626Z,42.26
2023-03-26T14:14:06.921Z,43.61
2023-03-26T14:16:38.533Z,43.53
2023-03-26T14:19:24.835Z,43.19
2023-03-26T14:22:04.905Z,42.45
2023-03-26T14:24:43.124Z,41.87
2023-03-26T14:27:41.408Z,41.50
2023-03-26T14:30:23.148Z,41.39
2023-03-26T14:33:30.366Z,41.14
2023-03-26T14:36:01.171Z,41.26
2023-03-26T14:38:56.804Z,41.10
2023-03-26T14:41:23.797Z,40.27
2023-03-26T14:44:09.752Z,40.55
2023-03-26T14:46:46.520Z,40.45
2023-03-26T14:49:39.991Z,40.44
2023-03-26T14:52:39.529Z,40.17
2023-03-26T14:55:16.947Z,39.61
2023-03-26T14:57:51.437Z,39.97
2023-03-26T15:00:28.042Z,39.90
2023-03-26T15:03:08.249Z,39.54
2023-03-26T15:06:18.713Z,39.54
2023-03-26T15:08:58.718Z,39.46
2023-03-26T15:11:45.335Z,40.68
2023-03-26T15:14:34.036Z,40.85
2023-03-26T15:17:23.114Z,40.74
2023-03-26T15:20:02.644Z,41.62
2023-03-26T15:22:48.969Z,42.08
2023-03-26T15:25:22.265Z,42.08
2023-03-26T15:28:09.659Z,41.83
2023-03-26T15:31:07.493Z,42.62
2023-03-26T15:33:45.735Z,43.04
2023-03-26T15:36:28.294Z,42.92
2023-03-26T15:39:20.001Z,43.97
2023-03-26T15:41:47.382Z,43.48
2023-03-26T15:44:25.581Z,43.53
2023-03-26T15:47:02.118Z,43.86
2023-03-26T15:49:42.981Z,44.15
2023-03-26T15:52:22.147Z,44.08
2023-03-26T15:55:27.908Z,44.38
2023-03-26T15:58:10.300Z,44.38
2023-03-26T16:00:42.235Z,44.28
2023-03-26T16:03:10.093Z,44.81
2023-03-26T16:06:14.251Z,44.52
2023-03-26T16:09:25.877Z,45.07
2023-03-26T16:12:31.891Z,44.94
2023-03-26T16:15:28.440Z,44.84
2023-03-26T16:18:12.017Z,44.57
2023-03-26T16:20:51.064Z,44.49
2023-03-26T16:23:31.041Z,44.72
2023-03-26T16:26:09.560Z,45.32
2023-03-26T16:28:49.531Z,45.33
2023-03-26T16:31:36.787Z,45.65
2023-03-26T16:34:03.420Z,45.51
2023-03-26T16:36:34.617Z,45.77
2023-03-26T16:39:10.416Z,45.91
2023-03-26T16:41:45.353Z,46.50
2023-03-26T16:44:13.910Z,47.14
2023-03-26T16:46:43.439Z,47.65
2023-03-26T16:49:18.479Z,47.75
2023-03-26T16:51:51.668Z,48.03
2023-03-26T16:54:25.245Z,48.33
2023-03-26T16:57:28.064Z,48.53
2023-03-26T17:00:16.680Z,49.09
2023-03-26T17:02:48.307Z,50.60
2023-03-26T17:05:51.224Z,50.04
2023-03-26T17:08:37.100Z,50.59
2023-03-26T17:11:38.391Z,52.23
2023-03-26T17:14:17.629Z,52.00
2023-03-26T17:17:03.027Z,53.37
2023-03-26T17:19:42.392Z,54.80
2023-03-26T17:22:21.586Z,54.16
2023-03-26T17:25:21.008Z,54.14
2023-03-26T17:28:21.240Z,53.79
2023-03-26T17:31:11.029Z,54.62
2023-03-26T17:33:44.809Z,55.31
2023-03-26T17:36:12.051Z,54.69
2023-03-26T17:38:47.421Z,54.80
2023-03-26T17:41:17.872Z,54.33
2023-03-26T17:43:52.420Z,54.56
2023-03-26T17:46:21.010Z,54.94
2023-03-26T17:48:57.052Z,56.27
2023-03-26T17:51:58.101Z,56.14
2023-03-26T17:54:39.470Z,55.95
2023-03-26T17:57:14.663Z,56.18
2023-03-26T17:59:43.235Z,56.51
2023-03-26T18:02:18.643Z,57.64
2023-03-26T18:04:48.353Z,57.23
2023-03-26T18:07:45.214Z,56.25
2023-03-26T18:10:47.064Z,55.48
2023-03-26T18:13:31.665Z,55.18
2023-03-26T18:16:03.720Z,56.29
2023-03-26T18:18:31.154Z,57.14
2023-03-26T18:20:58.849Z,57.94
2023-03-26T18:23:38.913Z,57.15
2023-03-26T18:26:14.265Z,57.27
2023-03-26T18:28:53.292Z,56.09
2023-03-26T18:31:25.005Z,54.82
2023-03-26T18:33:59.178Z,54.73
2023-03-26T18:36:27.936Z,54.48
2023-03-26T18:38:58.801Z,54.85
2023-03-26T18:41:31.286Z,54.54
2023-03-26T18:44:03.148Z,54.20
2023-03-26T18:46:35.837Z,54.40
2023-03-26T18:49:08.968Z,54.57
2023-03-26T18:51:46.480Z,54.28
2023-03-26T18:54:23.650Z,54.64
2023-03-26T18:57:31.607Z,53.61
2023-03-26T19:00:20.164Z,53.15
2023-03-26T19:02:49.827Z,53.12
2023-03-26T19:05:17.640Z,52.42
2023-03-26T19:07:50.272Z,52.38
2023-03-26T19:10:22.345Z,53.10
2023-03-26T19:12:59.112Z,53.66
2023-03-26T19:15:29.983Z,54.28
2023-03-26T19:18:06.986Z,54.94
2023-03-26T19:20:48.843Z,54.97
2023-03-26T19:23:18.290Z,55.12
2023-03-26T19:25:57.282Z,55.02
2023-03-26T19:28:33.044Z,54.87
2023-03-26T19:31:28.357Z,55.17
2023-03-26T19:33:59.371Z,56.51
2023-03-26T19:36:30.300Z,56.53
2023-03-26T19:39:00.886Z,56.15
2023-03-26T19:41:42.748Z,56.57
2023-03-26T19:44:33.945Z,57.33
2023-03-26T19:47:07.032Z,57.28
2023-03-26T19:49:54.637Z,56.28
2023-03-26T19:52:27.959Z,56.46
2023-03-26T19:55:22.622Z,56.37
2023-03-26T19:57:49.882Z,55.68
2023-03-26T20:00:19.097Z,55.07
2023-03-26T20:02:47.145Z,55.01
2023-03-26T20:05:26.067Z,55.25
2023-03-26T20:07:59.846Z,55.42
2023-03-26T20:10:30.647Z,55.36
2023-03-26T20:12:58.457Z,55.53
2023-03-26T20:15:32.397Z,55.59
2023-03-26T20:18:01.414Z,55.82
2023-03-26T20:20:29.091Z,55.68
2023-03-26T20:22:56.452Z,56.31
2023-03-26T20:25:31.120Z,56.75
2023-03-26T20:28:03.308Z,57.49
2023-03-26T20:30:37.711Z,57.80
2023-03-26T20:33:25.432Z,59.69
2023-03-26T20:35:56.864Z,59.09
2023-03-26T20:38:38.969Z,56.90
2023-03-26T20:41:17.656Z,56.71
2023-03-26T20:43:47.274Z,57.21
2023-03-26T20:46:30.984Z,58.08
2023-03-26T20:49:01.133Z,58.99
2023-03-26T20:51:33.673Z,59.48
2023-03-26T20:54:08.968Z,60.23
2023-03-26T20:56:42.402Z,61.13
2023-03-26T20:59:12.831Z,59.40
2023-03-26T21:01:49.926Z,60.51
2023-03-26T21:04:21.706Z,60.43
2023-03-26T21:07:07.189Z,59.09
2023-03-26T21:10:11.721Z,58.05
2023-03-26T21:13:08.325Z,58.59
2023-03-26T21:15:40.929Z,59.94
2023-03-26T21:18:17.355Z,60.86
2023-03-26T21:20:52.542Z,61.46
2023-03-26T21:23:36.827Z,62.53
2023-03-26T21:26:25.301Z,61.65
2023-03-26T21:28:53.922Z,60.22
2023-03-26T21:31:26.533Z,59.80
2023-03-26T21:33:55.412Z,59.86
2023-03-26T21:36:26.180Z,60.51
2023-03-26T21:39:05.478Z,60.89
2023-03-26T21:42:04.987Z,61.35
2023-03-26T21:44:59.097Z,63.08
2023-03-26T21:47:37.056Z,62.35
2023-03-26T21:50:25.608Z,60.42
2023-03-26T21:52:59.327Z,59.76
2023-03-26T21:55:30.827Z,60.14
2023-03-26T21:58:41.188Z,60.76
2023-03-26T22:01:56.079Z,62.28
2023-03-26T22:04:34.840Z,61.17
2023-03-26T22:07:12.095Z,62.59
2023-03-26T22:09:45.280Z,63.30
2023-03-26T22:12:15.155Z,62.06
2023-03-26T22:14:47.894Z,61.66
2023-03-26T22:17:15.178Z,61.67
2023-03-26T22:20:02.367Z,62.13
2023-03-26T22:22:29.795Z,63.05
2023-03-26T22:25:02.358Z,63.02
2023-03-26T22:27:44.926Z,62.73
2023-03-26T22:30:13.276Z,62.51
2023-03-26T22:32:45.782Z,61.28
2023-03-26T22:35:13.546Z,60.79
2023-03-26T22:37:43.925Z,60.96
2023-03-26T22:40:38.792Z,60.17
2023-03-26T22:43:11.496Z,60.38
2023-03-26T22:45:49.578Z,60.65
2023-03-26T22:48:20.029Z,61.32
2023-03-26T22:51:05.617Z,60.54
2023-03-26T22:53:56.443Z,58.91
2023-03-26T22:56:35.072Z,59.07
2023-03-26T22:59:14.244Z,59.34
2023-03-26T23:01:42.025Z,59.84
2023-03-26T23:04:12.234Z,60.33
2023-03-26T23:07:29.360Z,60.75
2023-03-26T23:10:16.661Z,61.91
2023-03-26T23:13:19.598Z,61.46
2023-03-26T23:16:00.108Z,59.90
2023-03-26T23:18:49.885Z,59.65
2023-03-26T23:21:23.048Z,59.88
2023-03-26T23:24:00.139Z,60.12
2023-03-26T23:26:43.859Z,61.09
2023-03-26T23:29:22.904Z,61.79
2023-03-26T23:31:54.745Z,62.41
2023-03-26T23:34:51.675Z,62.46
2023-03-26T23:37:35.189Z,60.79
2023-03-26T23:40:10.420Z,60.11
2023-03-26T23:42:38.052Z,60.83
2023-03-26T23:45:10.012Z,60.95
2023-03-26T23:47:59.483Z,61.91
2023-03-26T23:50:30.363Z,62.47
2023-03-26T23:53:28.873Z,63.19
2023-03-26T23:56:13.337Z,62.97
2023-03-26T23:58:50.318Z,62.16
